Time;durP1;ratioP1;P1;durP2;ratioP2;P2;SDS_P1;SDS_P2;PMS_P1;PMS_P2;Temp;Humidity;BMP_temperature;BMP_pressure;BME280_temperature;BME280_humidity;BME280_pressure;Samples;Min_cycle;Max_cycle;Signal;HPM_P1;HPM_P2
2022/05/31 00:01:55;;;;;;;12.93;5.03;;;;;;;18.01;85.38;94869.50;5032895;28;20211;-81
2022/05/31 00:04:20;;;;;;;18.00;5.00;;;;;;;18.00;86.24;94864.41;5032727;28;20191;-82
2022/05/31 00:06:46;;;;;;;13.38;4.55;;;;;;;18.00;86.13;94854.56;5032718;28;20168;-81
2022/05/31 00:09:12;;;;;;;18.75;4.00;;;;;;;18.07;86.18;94875.69;5032618;28;20184;-81
2022/05/31 00:11:41;;;;;;;8.07;4.20;;;;;;;17.99;85.84;94854.81;5032694;28;20305;-81
2022/05/31 00:14:07;;;;;;;10.65;4.35;;;;;;;18.04;85.48;94860.19;5011368;28;20230;-81
2022/05/31 00:16:33;;;;;;;10.43;3.63;;;;;;;17.88;85.61;94847.84;5031972;28;20665;-81
2022/05/31 00:18:58;;;;;;;17.67;6.55;;;;;;;17.96;85.92;94872.16;5032515;28;20191;-81
2022/05/31 00:21:57;;;;;;;5.20;3.50;;;;;;;17.66;86.39;94819.44;5032822;28;20198;-81
2022/05/31 00:24:23;;;;;;;5.45;3.80;;;;;;;17.70;86.05;94823.22;5029717;28;20195;-81
2022/05/31 00:26:49;;;;;;;6.45;3.67;;;;;;;17.92;86.62;94865.69;5032405;28;20171;-81
2022/05/31 00:29:14;;;;;;;8.27;3.78;;;;;;;17.90;86.32;94869.72;5032211;28;20223;-81
2022/05/31 00:31:43;;;;;;;8.95;3.60;;;;;;;17.68;86.87;94843.16;5032364;28;20175;-81
2022/05/31 00:34:09;;;;;;;7.45;3.83;;;;;;;17.81;86.59;94863.25;5032587;28;20176;-81
2022/05/31 00:36:37;;;;;;;7.25;4.32;;;;;;;17.84;86.43;94873.38;5032811;28;20167;-81
2022/05/31 00:39:03;;;;;;;7.63;4.53;;;;;;;17.77;86.44;94859.47;5032270;28;20172;-81
2022/05/31 00:41:29;;;;;;;11.07;4.45;;;;;;;17.77;86.62;94868.28;5032150;28;20192;-81
2022/05/31 00:44:26;;;;;;;13.55;7.35;;;;;;;17.68;86.58;94854.63;5031462;28;20183;-81
2022/05/31 00:47:13;;;;;;;10.05;5.53;;;;;;;17.79;86.63;94868.81;5028562;28;20163;-81
2022/05/31 00:49:49;;;;;;;11.52;5.85;;;;;;;17.79;86.44;94857.38;5016320;28;20182;-81
2022/05/31 00:52:29;;;;;;;11.40;5.25;;;;;;;17.70;86.87;94868.50;5014087;28;20232;-81
2022/05/31 00:55:10;;;;;;;15.40;7.47;;;;;;;17.66;87.20;94862.06;5028282;28;20183;-81
2022/05/31 00:57:40;;;;;;;12.82;6.03;;;;;;;17.72;86.88;94873.56;5028181;28;20172;-81
2022/05/31 01:00:10;;;;;;;11.75;6.75;;;;;;;17.70;86.98;94873.00;5031619;28;20178;-80
2022/05/31 01:02:37;;;;;;;16.10;6.20;;;;;;;17.41;87.64;94869.78;5031666;28;20602;-80
2022/05/31 01:05:04;;;;;;;7.93;5.78;;;;;;;17.24;88.99;94872.56;5031923;28;20164;-80
2022/05/31 01:07:31;;;;;;;13.52;4.97;;;;;;;17.32;88.90;94880.09;5031913;28;20595;-81
2022/05/31 01:09:56;;;;;;;11.60;5.97;;;;;;;17.26;88.75;94861.69;5031790;28;20210;-81
2022/05/31 01:12:23;;;;;;;9.40;6.82;;;;;;;17.38;88.95;94875.66;5031631;28;20192;-81
2022/05/31 01:14:49;;;;;;;9.98;6.85;;;;;;;17.32;88.69;94858.00;5031710;28;20175;-80
2022/05/31 01:17:23;;;;;;;14.40;6.40;;;;;;;17.40;88.44;94875.38;5031523;28;20184;-80
2022/05/31 01:19:56;;;;;;;13.25;7.05;;;;;;;17.41;88.57;94879.63;5031634;28;20274;-80
2022/05/31 01:22:34;;;;;;;14.63;6.47;;;;;;;17.42;88.57;94879.38;5027849;28;20164;-82
2022/05/31 01:25:08;;;;;;;9.15;5.85;;;;;;;17.29;88.88;94866.50;5027926;28;20190;-81
2022/05/31 01:27:40;;;;;;;9.88;6.60;;;;;;;17.42;88.63;94887.38;5031590;28;20182;-81
2022/05/31 01:30:08;;;;;;;11.73;7.80;;;;;;;17.44;88.67;94892.44;5031363;28;20211;-81
2022/05/31 01:32:39;;;;;;;10.50;6.22;;;;;;;17.31;88.82;94873.16;5031541;28;20183;-81
2022/05/31 01:35:17;;;;;;;8.82;6.03;;;;;;;17.31;88.97;94883.81;5032120;28;20639;-81
2022/05/31 01:37:58;;;;;;;10.75;5.18;;;;;;;17.10;88.83;94850.09;5031627;28;20153;-81
2022/05/31 01:40:31;;;;;;;11.52;5.65;;;;;;;17.30;88.98;94882.19;5031639;28;20223;-81
2022/05/31 01:42:57;;;;;;;8.07;4.25;;;;;;;17.04;89.27;94837.78;5032109;28;20247;-81
2022/05/31 01:45:31;;;;;;;5.70;4.10;;;;;;;17.25;88.94;94865.41;5031438;28;20255;-81
2022/05/31 01:48:01;;;;;;;8.77;4.03;;;;;;;17.11;89.05;94859.69;5031481;28;20195;-81
2022/05/31 01:50:26;;;;;;;13.57;4.68;;;;;;;17.11;89.55;94864.19;5031234;28;20246;-81
2022/05/31 01:52:53;;;;;;;7.70;4.55;;;;;;;16.95;89.43;94837.44;5031403;28;20659;-81
2022/05/31 01:55:21;;;;;;;6.22;4.68;;;;;;;16.91;89.42;94830.22;5033901;28;20179;-81
2022/05/31 01:57:54;;;;;;;8.45;4.32;;;;;;;17.22;89.50;94879.19;5034955;28;20180;-81
2022/05/31 02:00:19;;;;;;;7.00;4.55;;;;;;;17.23;89.26;94878.13;5034936;28;20206;-81
2022/05/31 02:02:49;;;;;;;7.00;4.20;;;;;;;17.21;89.39;94874.94;5034899;28;20180;-81
2022/05/31 02:05:15;;;;;;;7.55;4.70;;;;;;;17.21;89.69;94878.38;5034869;28;20164;-81
2022/05/31 02:07:41;;;;;;;10.95;4.28;;;;;;;17.10;89.47;94871.38;5034870;28;20187;-81
2022/05/31 02:10:07;;;;;;;6.47;4.32;;;;;;;17.14;89.60;94874.31;5034831;28;20163;-81
2022/05/31 02:12:33;;;;;;;10.13;4.72;;;;;;;17.13;89.68;94872.72;5034685;28;20693;-81
2022/05/31 02:14:58;;;;;;;9.75;4.43;;;;;;;17.14;89.60;94874.31;5034621;28;20183;-81
2022/05/31 02:17:24;;;;;;;7.13;4.68;;;;;;;16.73;89.53;94812.75;5034590;28;20178;-81
2022/05/31 02:19:49;;;;;;;8.18;4.15;;;;;;;17.13;89.39;94876.19;5034624;28;20164;-82
2022/05/31 02:22:18;;;;;;;6.30;4.45;;;;;;;16.68;89.52;94817.22;5034613;28;20219;-82
2022/05/31 02:24:44;;;;;;;7.35;4.40;;;;;;;16.87;89.46;94859.16;5017106;28;20609;-82
2022/05/31 02:27:11;;;;;;;14.25;4.85;;;;;;;17.07;89.62;94892.34;5034397;28;20233;-82
2022/05/31 02:29:38;;;;;;;9.88;4.05;;;;;;;16.82;89.53;94859.09;5034181;28;20651;-82
2022/05/31 02:32:06;;;;;;;9.70;4.70;;;;;;;17.07;89.66;94895.81;5034380;28;20174;-81
2022/05/31 02:34:36;;;;;;;7.28;4.10;;;;;;;17.01;89.60;94896.00;5034456;28;20179;-81
2022/05/31 02:37:03;;;;;;;8.90;5.40;;;;;;;16.77;89.72;94861.72;5034490;28;20156;-81
2022/05/31 02:39:29;;;;;;;8.25;4.85;;;;;;;16.76;89.88;94857.44;5034444;28;20156;-82
2022/05/31 02:41:54;;;;;;;12.85;4.75;;;;;;;16.90;90.04;94884.44;5034646;28;20671;-82
2022/05/31 02:44:20;;;;;;;8.75;4.72;;;;;;;16.90;90.29;94893.22;5034564;28;20228;-82
2022/05/31 02:46:46;;;;;;;7.78;3.58;;;;;;;16.70;90.01;94870.91;5034387;28;20152;-82
2022/05/31 02:49:11;;;;;;;12.07;4.60;;;;;;;16.87;90.02;94901.69;5016516;28;20164;-82
2022/05/31 02:51:41;;;;;;;14.27;4.15;;;;;;;16.86;89.58;94899.31;5034296;28;20171;-81
2022/05/31 02:54:07;;;;;;;16.27;5.28;;;;;;;16.74;89.58;94890.66;5034606;28;20159;-81
2022/05/31 02:56:33;;;;;;;11.97;4.33;;;;;;;16.84;89.53;94907.53;5034190;28;20182;-82
2022/05/31 02:58:59;;;;;;;12.45;4.25;;;;;;;16.59;89.68;94883.25;5033922;28;20561;-82
2022/05/31 03:01:28;;;;;;;20.15;4.63;;;;;;;16.70;90.00;94910.78;5033754;28;20196;-82
2022/05/31 03:03:54;;;;;;;10.55;4.32;;;;;;;16.78;90.09;94924.44;5033718;28;20172;-82
2022/05/31 03:06:20;;;;;;;7.13;4.22;;;;;;;16.55;90.03;94887.47;5013341;28;20172;-82
2022/05/31 03:08:46;;;;;;;13.57;5.07;;;;;;;16.69;89.98;94903.88;5033632;28;20176;-82
2022/05/31 03:11:18;;;;;;;13.17;5.20;;;;;;;16.83;89.75;94931.69;5012605;28;20271;-82
2022/05/31 03:13:46;;;;;;;13.10;5.32;;;;;;;16.52;90.13;94885.28;5029302;28;20217;-81
2022/05/31 03:16:12;;;;;;;9.75;5.53;;;;;;;16.48;90.57;94881.53;5033867;28;20184;-81
2022/05/31 03:18:42;;;;;;;12.60;5.05;;;;;;;16.62;90.95;94909.38;5034178;28;20538;-81
2022/05/31 03:21:14;;;;;;;10.35;5.32;;;;;;;16.65;91.02;94908.88;5033681;28;20196;-81
2022/05/31 03:23:46;;;;;;;13.98;5.28;;;;;;;16.81;91.02;94928.47;5033970;28;20176;-81
2022/05/31 03:26:15;;;;;;;13.05;4.68;;;;;;;16.77;90.56;94900.78;5033561;28;20164;-83
2022/05/31 03:28:41;;;;;;;9.48;5.13;;;;;;;17.07;90.18;94937.56;5032728;28;20262;-84
2022/05/31 03:31:07;;;;;;;10.77;5.43;;;;;;;17.13;89.90;94937.38;5033086;28;20250;-84
2022/05/31 03:33:33;;;;;;;12.55;5.63;;;;;;;17.21;89.46;94939.56;5015123;28;20172;-84
2022/05/31 03:35:59;;;;;;;11.45;5.20;;;;;;;17.24;89.07;94928.44;5033165;28;20255;-84
2022/05/31 03:38:24;;;;;;;16.48;6.18;;;;;;;17.23;89.03;94926.03;5033371;28;20168;-84
2022/05/31 03:40:56;;;;;;;16.15;5.53;;;;;;;17.04;89.11;94892.84;5015414;28;20599;-82
2022/05/31 03:43:22;;;;;;;11.25;5.25;;;;;;;17.44;89.26;94949.16;5033532;28;20183;-82
2022/05/31 03:45:47;;;;;;;15.98;5.80;;;;;;;17.28;89.14;94910.13;5032306;28;20196;-82
2022/05/31 03:48:13;;;;;;;15.10;6.63;;;;;;;17.65;88.64;94942.97;5032631;28;20662;-82
2022/05/31 03:50:39;;;;;;;15.38;6.03;;;;;;;17.46;87.99;94904.47;5032834;28;20175;-81
2022/05/31 03:53:06;;;;;;;10.80;5.55;;;;;;;17.80;87.63;94942.34;5030931;28;20180;-81
2022/05/31 03:55:31;;;;;;;11.98;5.28;;;;;;;17.94;86.98;94950.69;5032955;28;20265;-81
2022/05/31 03:57:57;;;;;;;15.70;9.80;;;;;;;18.09;86.30;94945.47;5030468;28;20184;-80
2022/05/31 04:00:23;;;;;;;17.38;10.35;;;;;;;18.26;85.21;94948.00;5019227;28;20705;-80
2022/05/31 04:02:48;;;;;;;24.40;12.80;;;;;;;18.33;84.99;94948.59;5027851;28;20267;-81
2022/05/31 04:05:14;;;;;;;36.03;17.90;;;;;;;18.40;84.49;94933.19;5025355;28;20270;-81
2022/05/31 04:07:40;;;;;;;18.02;8.07;;;;;;;18.76;83.97;94944.88;5020368;28;20660;-81
2022/05/31 04:10:07;;;;;;;15.88;5.43;;;;;;;18.99;83.19;94947.13;5028837;28;20282;-80
2022/05/31 04:12:38;;;;;;;12.60;5.30;;;;;;;19.14;82.54;94955.19;5028250;28;20253;-80
2022/05/31 04:15:04;;;;;;;7.75;3.65;;;;;;;19.11;82.42;94921.00;5032292;28;20190;-80
2022/05/31 04:17:29;;;;;;;12.65;7.78;;;;;;;19.40;81.99;94925.88;5032171;28;20294;-80
2022/05/31 04:19:55;;;;;;;14.02;6.28;;;;;;;19.68;80.17;94946.00;5032877;28;20683;-81
2022/05/31 04:22:21;;;;;;;8.95;5.70;;;;;;;19.77;78.59;94947.88;5031935;28;20226;-81
2022/05/31 04:24:46;;;;;;;10.10;5.70;;;;;;;19.96;79.06;94973.03;5032488;28;20326;-82
2022/05/31 04:27:16;;;;;;;10.73;5.32;;;;;;;20.25;79.40;94977.84;5032124;28;20179;-82
2022/05/31 04:29:42;;;;;;;10.68;5.57;;;;;;;20.42;79.89;94966.88;5031955;28;20231;-82
2022/05/31 04:32:07;;;;;;;139.68;129.52;;;;;;;20.78;77.45;94975.66;5028456;28;20184;-80
2022/05/31 04:34:33;;;;;;;330.10;306.52;;;;;;;21.05;76.06;94982.28;5031807;28;20179;-80
2022/05/31 04:36:58;;;;;;;211.07;197.45;;;;;;;21.26;74.33;94983.03;5032155;28;20265;-80
2022/05/31 04:39:23;;;;;;;160.90;151.65;;;;;;;21.41;73.77;94990.22;5032445;28;20555;-79
2022/05/31 04:41:49;;;;;;;209.13;195.98;;;;;;;21.50;73.61;94966.31;5030643;28;20623;-80
2022/05/31 04:44:15;;;;;;;645.42;602.00;;;;;;;21.93;72.96;94996.88;5030722;28;20198;-79
2022/05/31 04:46:42;;;;;;;204.13;189.48;;;;;;;22.25;71.59;95002.59;5029673;28;20238;-80
2022/05/31 04:49:08;;;;;;;79.97;73.22;;;;;;;22.53;70.38;94984.91;5031864;28;20184;-80
2022/05/31 04:51:34;;;;;;;14.10;5.22;;;;;;;22.86;69.37;95002.88;5031768;28;20658;-80
2022/05/31 04:54:01;;;;;;;15.20;5.80;;;;;;;22.71;68.69;94959.25;5027763;28;20651;-80
2022/05/31 04:56:27;;;;;;;18.05;8.07;;;;;;;23.22;67.86;94999.81;5031726;28;20184;-80
2022/05/31 04:58:53;;;;;;;20.27;11.10;;;;;;;23.43;67.34;95003.88;5031633;28;20176;-80
2022/05/31 05:01:20;;;;;;;31.63;15.30;;;;;;;23.66;66.75;94991.50;5013511;28;20195;-80
2022/05/31 05:03:46;;;;;;;10.95;5.30;;;;;;;24.01;64.71;95012.53;5031413;28;20178;-80
2022/05/31 05:06:14;;;;;;;7.80;4.35;;;;;;;24.28;64.82;95009.19;5031480;28;20171;-80
2022/05/31 05:08:40;;;;;;;14.60;5.82;;;;;;;24.71;63.22;95011.72;5031521;28;20258;-80
2022/05/31 05:11:09;;;;;;;9.82;4.53;;;;;;;25.18;62.76;95011.44;5030155;28;20321;-80
2022/05/31 05:13:35;;;;;;;11.38;5.68;;;;;;;25.71;59.95;95012.84;5011811;28;20225;-80
2022/05/31 05:16:01;;;;;;;17.20;7.22;;;;;;;26.10;58.64;95012.28;5030048;28;20225;-80
2022/05/31 05:18:28;;;;;;;8.73;4.35;;;;;;;26.59;58.50;95011.41;5030292;28;20726;-80
2022/05/31 05:20:53;;;;;;;20.75;7.82;;;;;;;27.03;56.46;95010.59;5030297;28;20288;-80
2022/05/31 05:23:19;;;;;;;16.90;6.32;;;;;;;27.49;53.32;94995.81;5031620;28;20264;-80
2022/05/31 05:25:49;;;;;;;18.23;8.23;;;;;;;28.02;53.35;95004.53;5022856;28;20199;-80
2022/05/31 05:30:59;;;;;;;13.98;7.18;;;;;;;28.28;51.84;95012.69;5035233;28;20261;-80
2022/05/31 05:33:25;;;;;;;29.48;11.23;;;;;;;28.57;50.89;94995.81;5035176;28;20282;-80
2022/05/31 05:35:50;;;;;;;13.57;4.97;;;;;;;28.77;50.85;95003.31;5035406;28;20257;-80
2022/05/31 05:38:15;;;;;;;18.40;6.78;;;;;;;29.00;50.52;95013.94;5035423;28;20229;-80
2022/05/31 05:40:41;;;;;;;14.30;6.60;;;;;;;29.34;48.91;95005.66;5035202;28;20199;-80
2022/05/31 05:43:08;;;;;;;6.40;3.60;;;;;;;29.56;48.65;95010.88;5035424;28;20255;-81
2022/05/31 05:45:34;;;;;;;9.80;3.72;;;;;;;29.83;47.49;95008.81;5035558;28;20179;-81
2022/05/31 05:47:59;;;;;;;8.27;3.90;;;;;;;29.77;47.29;94966.69;5035061;28;20180;-81
2022/05/31 05:50:24;;;;;;;14.98;5.55;;;;;;;30.12;46.68;95016.94;5035073;28;20567;-81
2022/05/31 05:52:57;;;;;;;12.32;4.72;;;;;;;30.13;46.88;95007.69;5035087;28;20251;-81
2022/05/31 05:55:22;;;;;;;14.00;4.90;;;;;;;30.01;46.26;95018.47;5031108;28;20172;-81
2022/05/31 05:57:48;;;;;;;10.80;6.30;;;;;;;29.78;48.75;95017.13;5035015;28;20180;-80
2022/05/31 06:00:14;;;;;;;10.20;4.93;;;;;;;29.58;48.57;95011.31;5034933;28;20172;-81
2022/05/31 06:02:43;;;;;;;14.85;4.53;;;;;;;29.52;49.08;95001.00;5034890;28;20218;-81
2022/05/31 06:05:13;;;;;;;8.13;4.05;;;;;;;29.31;47.75;95005.53;5017062;28;20182;-80
2022/05/31 06:07:42;;;;;;;14.35;5.15;;;;;;;29.18;48.15;95027.13;5034914;28;20186;-81
2022/05/31 06:10:45;;;;;;;18.15;4.30;;;;;;;29.12;49.67;95024.91;5034851;28;20225;-81
2022/05/31 06:13:19;;;;;;;4.45;3.72;;;;;;;29.30;49.26;95012.88;4958128;28;20682;-81
2022/05/31 06:15:48;;;;;;;9.35;4.65;;;;;;;29.52;49.06;95018.06;5015107;28;20176;-81
2022/05/31 06:18:18;;;;;;;12.98;4.75;;;;;;;29.50;48.24;95017.59;5014977;28;20176;-81
2022/05/31 06:20:49;;;;;;;15.55;5.43;;;;;;;29.07;48.87;94966.19;5030632;28;20587;-81
2022/05/31 06:23:14;;;;;;;14.00;7.47;;;;;;;29.37;49.39;95017.81;5034567;28;20184;-80
2022/05/31 06:25:40;;;;;;;16.40;9.77;;;;;;;29.14;48.13;95017.25;5034666;28;20183;-80
2022/05/31 06:28:06;;;;;;;16.30;6.32;;;;;;;28.85;50.15;94998.97;5034666;28;20251;-81
2022/05/31 06:30:32;;;;;;;11.82;5.72;;;;;;;28.93;50.09;95014.44;5034270;28;20222;-80
2022/05/31 06:33:01;;;;;;;10.35;5.70;;;;;;;29.02;50.26;95011.69;5034139;28;20211;-80
2022/05/31 06:35:26;;;;;;;18.58;7.57;;;;;;;28.92;49.30;95004.69;5034349;28;20183;-81
2022/05/31 06:37:52;;;;;;;14.27;5.22;;;;;;;29.15;49.54;95013.38;5017406;28;20265;-81
2022/05/31 06:40:17;;;;;;;15.57;6.10;;;;;;;29.15;50.03;94995.19;5033567;28;20171;-81
2022/05/31 06:42:43;;;;;;;10.70;6.03;;;;;;;29.07;48.26;94971.63;5033557;28;20164;-80
2022/05/31 06:45:08;;;;;;;13.27;7.80;;;;;;;28.87;47.87;95000.25;5033964;28;20191;-82
2022/05/31 06:47:34;;;;;;;11.05;5.25;;;;;;;28.75;50.08;95000.06;5034434;28;20171;-79
2022/05/31 06:49:59;;;;;;;11.18;6.47;;;;;;;28.87;51.13;95010.31;5034151;28;20175;-81
2022/05/31 06:57:53;;;;;;;13.50;5.65;;;;;;;29.17;49.39;94970.47;5038953;28;20601;-80
2022/05/31 07:00:20;;;;;;;24.02;5.80;;;;;;;29.49;50.03;95007.84;5033919;28;20180;-79
2022/05/31 07:02:46;;;;;;;10.25;4.05;;;;;;;29.64;49.13;95001.91;5033948;28;20543;-80
2022/05/31 07:05:12;;;;;;;7.65;4.15;;;;;;;29.72;47.77;95002.16;5033776;28;20190;-80
2022/05/31 07:07:39;;;;;;;10.02;4.13;;;;;;;29.82;46.28;94996.38;5033371;28;20180;-83
2022/05/31 07:10:06;;;;;;;11.90;3.97;;;;;;;29.65;45.98;94980.97;5038411;28;20179;-78
2022/05/31 07:12:32;;;;;;;11.77;4.32;;;;;;;29.75;48.78;94979.81;5034695;28;20177;-79
2022/05/31 07:14:58;;;;;;;12.00;4.38;;;;;;;29.70;46.44;94991.63;5034604;28;20646;-80
2022/05/31 07:17:24;;;;;;;12.00;4.63;;;;;;;28.80;47.51;94991.78;5033644;28;20167;-80
2022/05/31 07:19:49;;;;;;;12.75;4.85;;;;;;;28.73;50.33;95002.31;5033146;28;20175;-79
2022/05/31 07:22:15;;;;;;;7.68;4.53;;;;;;;29.02;51.07;95003.56;5033222;28;20203;-81
2022/05/31 07:24:40;;;;;;;10.63;4.45;;;;;;;29.24;50.02;94984.31;5037253;28;20175;-79
2022/05/31 07:27:06;;;;;;;8.27;4.70;;;;;;;29.39;48.50;94975.69;5034392;28;20234;-79
2022/05/31 07:29:31;;;;;;;16.80;5.32;;;;;;;29.40;49.29;94980.00;5018571;28;20219;-79
2022/05/31 07:31:57;;;;;;;12.57;5.00;;;;;;;29.71;50.36;94995.94;5033164;28;20168;-80
2022/05/31 07:34:26;;;;;;;14.35;5.50;;;;;;;29.40;46.06;94976.47;5030786;28;20710;-79
2022/05/31 07:36:51;;;;;;;8.63;3.60;;;;;;;29.00;49.72;94984.09;5032809;28;20188;-79
2022/05/31 07:39:19;;;;;;;9.52;3.85;;;;;;;29.38;50.67;94989.56;5033046;28;20167;-79
2022/05/31 07:41:46;;;;;;;7.10;4.07;;;;;;;29.90;48.22;94990.09;5032690;28;20199;-79
2022/05/31 07:44:12;;;;;;;8.52;4.22;;;;;;;29.70;47.40;94978.06;5014174;28;20214;-79
2022/05/31 07:46:39;;;;;;;16.42;4.05;;;;;;;29.77;46.05;94983.75;5032549;28;20658;-79
2022/05/31 07:49:04;;;;;;;6.95;3.50;;;;;;;29.57;50.73;94982.63;5036997;28;21074;-78
2022/05/31 07:51:29;;;;;;;7.35;3.72;;;;;;;29.76;49.89;94973.22;5035387;28;20238;-79
2022/05/31 07:53:55;;;;;;;10.75;4.15;;;;;;;30.07;48.09;94979.13;5032567;28;20266;-81
2022/05/31 07:56:21;;;;;;;10.00;3.58;;;;;;;30.38;47.88;94984.13;5037034;28;20174;-80
2022/05/31 07:58:48;;;;;;;18.40;5.60;;;;;;;30.57;46.32;94991.84;5032790;28;20191;-79
2022/05/31 08:01:16;;;;;;;8.25;4.25;;;;;;;30.43;45.24;94980.44;5032819;28;20242;-79
2022/05/31 08:03:43;;;;;;;13.00;4.07;;;;;;;30.33;46.54;94982.44;5032582;28;20172;-78
2022/05/31 08:06:11;;;;;;;11.48;4.85;;;;;;;30.26;45.75;94979.47;5015940;28;20187;-78
2022/05/31 08:08:37;;;;;;;11.60;5.50;;;;;;;29.54;46.91;94971.63;5032932;28;20180;-80
2022/05/31 08:11:08;;;;;;;9.07;3.90;;;;;;;29.70;50.69;94974.56;5032558;28;20627;-80
2022/05/31 08:13:34;;;;;;;10.32;4.18;;;;;;;30.07;48.49;94975.63;5032724;28;20212;-81
2022/05/31 08:16:02;;;;;;;6.72;3.17;;;;;;;30.34;46.41;94958.78;5032530;28;20226;-85
2022/05/31 08:18:27;;;;;;;10.05;3.58;;;;;;;30.70;44.79;94969.78;5032327;28;20186;-84
2022/05/31 08:21:14;;;;;;;6.70;3.22;;;;;;;30.81;45.58;94981.03;5041596;28;21217;-84
2022/05/31 08:23:40;;;;;;;8.43;3.33;;;;;;;30.72;43.60;94974.91;5032642;28;20187;-84
2022/05/31 08:26:06;;;;;;;6.32;2.90;;;;;;;30.39;45.79;94970.22;5032601;28;20182;-84
2022/05/31 08:28:32;;;;;;;8.65;4.07;;;;;;;30.45;45.30;94972.72;5017915;28;20184;-84
2022/05/31 08:31:07;;;;;;;11.00;3.70;;;;;;;30.62;47.19;94978.81;5031984;28;20223;-82
2022/05/31 08:33:33;;;;;;;10.65;3.55;;;;;;;30.77;44.07;94947.50;5032318;28;20184;-84
2022/05/31 08:35:59;;;;;;;8.02;3.40;;;;;;;30.32;41.98;94931.13;5032300;28;20563;-85
2022/05/31 08:38:25;;;;;;;6.40;3.80;;;;;;;30.17;45.26;94946.13;5014638;28;20171;-87
2022/05/31 08:40:56;;;;;;;6.90;3.35;;;;;;;30.42;47.10;94952.47;5032153;28;21085;-83
2022/05/31 08:43:35;;;;;;;6.28;2.85;;;;;;;30.87;44.51;94952.53;5032044;28;20237;-87
2022/05/31 08:46:07;;;;;;;10.13;3.47;;;;;;;30.78;45.28;94937.44;5032180;28;20206;-83
2022/05/31 08:48:39;;;;;;;8.18;3.50;;;;;;;31.01;44.28;94958.44;5032150;28;20195;-80
2022/05/31 08:57:09;;;;;;;6.68;3.17;;;;;;;30.25;46.45;94952.63;5032119;28;20563;-80
2022/05/31 08:59:44;;;;;;;11.30;3.67;;;;;;;29.91;44.52;94945.53;5014466;28;20179;-81
2022/05/31 09:02:21;;;;;;;9.02;2.90;;;;;;;29.95;45.30;94946.47;5032271;28;20728;-80
2022/05/31 09:05:13;;;;;;;7.32;3.22;;;;;;;29.51;46.50;94934.25;5031373;28;20175;-80
2022/05/31 09:07:52;;;;;;;10.93;3.63;;;;;;;29.85;45.47;94935.97;5031704;28;20172;-81
2022/05/31 09:10:40;;;;;;;9.02;3.65;;;;;;;30.13;46.60;94942.47;5031957;28;20194;-82
2022/05/31 09:13:23;;;;;;;3.92;2.45;;;;;;;30.28;42.91;94954.66;5031680;28;20229;-82
2022/05/31 09:16:00;;;;;;;7.72;2.78;;;;;;;30.52;43.72;94943.13;5031887;28;20202;-81
2022/05/31 09:18:39;;;;;;;5.53;3.28;;;;;;;30.68;44.07;94942.16;5014000;28;20565;-83
2022/05/31 09:21:13;;;;;;;14.68;2.97;;;;;;;30.65;40.81;94929.22;5031830;28;20195;-81
2022/05/31 09:23:38;;;;;;;11.90;4.63;;;;;;;30.33;41.84;94944.41;5032088;28;20607;-82
2022/05/31 09:26:27;;;;;;;7.22;3.28;;;;;;;30.09;41.99;94938.06;5031756;28;20187;-82
2022/05/31 09:28:56;;;;;;;9.13;3.33;;;;;;;29.72;44.55;94937.03;5024998;28;20204;-81
2022/05/31 09:31:53;;;;;;;8.10;3.13;;;;;;;28.92;46.65;94936.13;5031490;28;20186;-80
2022/05/31 09:35:07;;;;;;;7.63;3.20;;;;;;;28.71;50.69;94934.09;5004686;28;20863;-81
2022/05/31 09:37:58;;;;;;;12.65;3.30;;;;;;;28.34;48.06;94905.81;5025616;28;20171;-81
2022/05/31 09:41:06;;;;;;;4.53;3.22;;;;;;;28.52;48.87;94923.63;5031499;28;20179;-81
2022/05/31 09:43:35;;;;;;;5.10;3.13;;;;;;;28.72;49.94;94932.16;5031270;28;20172;-80
2022/05/31 09:46:27;;;;;;;8.25;4.30;;;;;;;28.86;49.25;94928.19;5031550;28;20675;-80
2022/05/31 09:48:53;;;;;;;9.18;3.70;;;;;;;28.83;50.31;94912.56;5032078;28;20229;-80
2022/05/31 09:51:27;;;;;;;4.63;3.33;;;;;;;29.00;47.25;94930.66;5031315;28;20168;-80
2022/05/31 09:59:26;;;;;;;6.53;3.97;;;;;;;29.39;48.27;94926.06;5031387;28;20190;-80
2022/05/31 10:01:52;;;;;;;14.43;4.47;;;;;;;29.32;46.12;94910.25;5031356;28;20207;-83
2022/05/31 10:04:29;;;;;;;8.25;2.90;;;;;;;29.33;48.50;94925.41;5031368;28;20241;-81
2022/05/31 10:07:05;;;;;;;7.68;2.88;;;;;;;29.34;46.69;94926.19;5031691;28;20184;-81
2022/05/31 10:09:46;;;;;;;6.72;3.10;;;;;;;29.20;48.86;94919.09;5023005;28;20263;-79
2022/05/31 10:12:14;;;;;;;7.57;3.20;;;;;;;29.18;47.45;94920.53;5013441;28;20254;-80
2022/05/31 10:14:45;;;;;;;6.25;2.80;;;;;;;29.10;46.68;94914.03;5031087;28;20180;-81
2022/05/31 10:17:29;;;;;;;5.18;2.72;;;;;;;29.16;46.21;94914.63;5034766;28;20226;-82
2022/05/31 10:20:09;;;;;;;7.32;3.25;;;;;;;29.15;47.86;94913.84;5034694;28;20179;-81
2022/05/31 10:22:36;;;;;;;13.90;3.28;;;;;;;29.15;50.70;94911.13;5029757;28;20192;-81
2022/05/31 10:25:18;;;;;;;6.45;2.78;;;;;;;29.04;47.08;94901.00;5034735;28;20764;-81
2022/05/31 10:27:44;;;;;;;7.93;3.28;;;;;;;29.16;47.84;94907.31;5033948;28;20188;-82
2022/05/31 10:30:17;;;;;;;5.30;2.63;;;;;;;29.23;48.98;94906.81;5034329;28;20702;-81
2022/05/31 10:33:03;;;;;;;6.35;3.03;;;;;;;29.29;47.42;94905.50;5034303;28;20180;-81
2022/05/31 10:35:32;;;;;;;8.55;4.40;;;;;;;29.19;48.08;94882.25;5015465;28;20202;-82
2022/05/31 10:38:04;;;;;;;9.75;2.88;;;;;;;29.31;48.39;94899.75;5034510;28;20176;-82
2022/05/31 10:40:38;;;;;;;8.48;3.50;;;;;;;29.36;48.56;94894.16;5034188;28;20176;-82
2022/05/31 10:43:27;;;;;;;7.13;3.42;;;;;;;29.04;47.39;94893.66;5034105;28;20568;-81
2022/05/31 10:45:55;;;;;;;4.97;3.00;;;;;;;28.81;44.99;94892.31;5018364;28;20227;-82
2022/05/31 10:48:20;;;;;;;9.07;3.33;;;;;;;28.60;46.29;94867.81;5033976;28;20184;-81
2022/05/31 10:51:12;;;;;;;9.30;3.58;;;;;;;28.72;47.17;94880.66;5034068;28;20179;-81
2022/05/31 10:53:57;;;;;;;5.97;3.10;;;;;;;28.82;49.24;94880.34;5033924;28;20176;-81
2022/05/31 10:56:30;;;;;;;8.95;3.63;;;;;;;28.87;48.28;94872.84;5034031;28;20172;-82
2022/05/31 10:59:10;;;;;;;10.48;3.20;;;;;;;28.82;47.97;94870.28;5034104;28;20190;-81
2022/05/31 11:01:36;;;;;;;5.38;3.25;;;;;;;28.99;48.65;94864.00;5034109;28;20756;-81
2022/05/31 11:04:21;;;;;;;5.75;3.28;;;;;;;28.90;43.50;94863.25;5033863;28;20184;-81
2022/05/31 11:07:17;;;;;;;5.78;3.40;;;;;;;28.63;47.64;94860.97;5011660;28;20168;-81
2022/05/31 11:13:18;;;;;;;6.68;2.78;;;;;;;28.82;45.44;94845.91;5034770;28;20239;-81
2022/05/31 11:16:06;;;;;;;4.10;2.25;;;;;;;28.92;45.49;94849.38;5010616;28;20187;-81
2022/05/31 11:19:15;;;;;;;5.95;2.45;;;;;;;28.95;46.19;94846.00;5033996;28;20186;-81
2022/05/31 11:21:59;;;;;;;7.60;2.72;;;;;;;28.76;44.34;94822.81;4989699;28;20306;-81
2022/05/31 11:24:53;;;;;;;5.88;2.85;;;;;;;28.95;45.53;94846.00;5033631;28;20187;-82
2022/05/31 11:27:27;;;;;;;5.97;2.38;;;;;;;28.96;47.73;94844.91;5017759;28;20253;-81
2022/05/31 11:30:30;;;;;;;7.55;2.95;;;;;;;29.02;47.60;94832.72;5033130;28;20250;-81
2022/05/31 11:33:31;;;;;;;6.25;2.97;;;;;;;28.97;48.08;94833.72;5018751;28;20187;-81
2022/05/31 11:36:12;;;;;;;10.15;3.13;;;;;;;28.54;45.10;94833.91;5026775;28;20181;-81
2022/05/31 11:39:07;;;;;;;4.43;2.42;;;;;;;28.42;48.66;94833.75;5030815;28;20180;-81
2022/05/31 11:41:37;;;;;;;4.95;2.30;;;;;;;28.36;46.91;94827.75;5030589;28;20242;-82
2022/05/31 11:44:21;;;;;;;2.78;1.92;;;;;;;28.51;46.43;94831.81;5033257;28;20175;-81
2022/05/31 11:47:19;;;;;;;7.97;2.33;;;;;;;28.41;44.60;94813.22;5011967;28;20512;-81
2022/05/31 11:49:50;;;;;;;4.55;2.50;;;;;;;28.60;44.74;94820.94;5027279;28;20631;-82
2022/05/31 11:52:37;;;;;;;6.10;2.50;;;;;;;28.67;47.13;94816.63;5033335;28;20179;-81
2022/05/31 11:58:27;;;;;;;9.93;3.60;;;;;;;28.81;46.84;94825.34;5010038;28;20195;-82
2022/05/31 12:01:11;;;;;;;4.47;2.67;;;;;;;28.87;47.23;94815.91;5029759;28;20199;-82
2022/05/31 12:03:36;;;;;;;3.42;2.30;;;;;;;28.88;45.61;94814.78;5031663;28;20313;-82
2022/05/31 12:06:13;;;;;;;5.57;2.25;;;;;;;28.80;46.23;94806.72;5032635;28;20254;-82
2022/05/31 12:08:51;;;;;;;2.88;2.30;;;;;;;28.80;44.66;94801.28;5032667;28;20160;-81
2022/05/31 12:11:32;;;;;;;3.85;2.10;;;;;;;28.93;44.04;94816.50;5026787;28;20213;-82
2022/05/31 12:13:59;;;;;;;3.83;2.72;;;;;;;28.85;44.69;94788.34;5032710;28;20205;-82